Time;durP1;ratioP1;P1;durP2;ratioP2;P2;SDS_P1;SDS_P2;PMS_P1;PMS_P2;Temp;Humidity;BMP_temperature;BMP_pressure;BME280_temperature;BME280_humidity;BME280_pressure;Samples;Min_cycle;Max_cycle;Signal;HPM_P1;HPM_P2
2023/06/09 00:02:09;;;;;;;5.30;4.80;;;;;;;18.83;53.25;100053.30;103421;1253;138355;-82
2023/06/09 00:04:37;;;;;;;8.30;4.20;;;;;;;18.81;53.34;100051.36;103385;1255;107708;-82
2023/06/09 00:07:06;;;;;;;8.20;4.50;;;;;;;18.77;53.70;100049.67;103396;1255;137558;-82
2023/06/09 00:09:34;;;;;;;8.10;4.20;;;;;;;18.74;53.76;100048.45;103375;1253;107667;-82
2023/06/09 00:12:02;;;;;;;6.60;4.20;;;;;;;18.71;54.09;100046.54;103442;1253;96904;-83
2023/06/09 00:14:29;;;;;;;5.60;4.50;;;;;;;18.70;54.40;100046.80;103361;1253;137359;-83
2023/06/09 00:16:59;;;;;;;9.10;4.30;;;;;;;18.67;54.45;100046.83;103437;1254;107063;-82
2023/06/09 00:19:27;;;;;;;6.20;4.50;;;;;;;18.64;54.53;100045.95;103850;1253;137563;-82
2023/06/09 00:21:54;;;;;;;7.90;4.50;;;;;;;18.62;54.61;100044.68;103457;1251;106274;-82
2023/06/09 00:24:23;;;;;;;6.80;5.30;;;;;;;18.60;54.66;100043.06;103531;1253;96461;-81
2023/06/09 00:26:51;;;;;;;9.10;4.90;;;;;;;18.57;54.73;100042.02;103690;1253;138712;-81
2023/06/09 00:29:21;;;;;;;8.70;5.10;;;;;;;18.53;54.68;100039.81;103475;1253;107692;-82
2023/06/09 00:31:48;;;;;;;8.40;5.00;;;;;;;18.49;54.73;100044.52;103388;1251;137416;-82
2023/06/09 00:34:16;;;;;;;6.10;4.80;;;;;;;18.46;54.86;100042.60;103728;1254;107981;-82
2023/06/09 00:36:43;;;;;;;6.30;4.90;;;;;;;18.43;54.94;100038.41;103399;1254;96326;-82
2023/06/09 00:39:10;;;;;;;6.80;5.10;;;;;;;18.40;55.12;100040.15;103382;1256;137607;-82
2023/06/09 00:41:39;;;;;;;5.80;5.00;;;;;;;18.38;55.20;100038.58;103432;1253;107856;-83
2023/06/09 00:44:07;;;;;;;8.20;5.20;;;;;;;18.35;55.30;100034.19;103281;1253;138131;-82
2023/06/09 00:46:35;;;;;;;10.30;5.60;;;;;;;18.34;55.35;100036.39;103438;1252;108173;-81
2023/06/09 00:49:03;;;;;;;7.20;4.90;;;;;;;18.32;55.48;100035.99;103319;1253;138399;-83
2023/06/09 00:51:33;;;;;;;7.90;5.40;;;;;;;18.31;55.65;100040.47;103384;1253;111913;-82
2023/06/09 00:54:01;;;;;;;9.20;5.10;;;;;;;18.29;55.73;100042.73;103321;1253;106447;-82
2023/06/09 00:56:29;;;;;;;7.90;4.90;;;;;;;18.27;55.98;100042.66;103363;1253;139279;-82
2023/06/09 00:58:57;;;;;;;5.50;4.80;;;;;;;18.25;56.39;100044.19;103407;1254;108659;-81
2023/06/09 01:01:25;;;;;;;8.60;4.70;;;;;;;18.22;56.60;100041.23;103379;1253;138260;-81
2023/06/09 01:03:52;;;;;;;7.60;5.00;;;;;;;18.19;56.69;100034.05;103496;1253;110466;-81
2023/06/09 01:06:26;;;;;;;6.80;4.80;;;;;;;18.18;56.78;100032.20;103998;1252;108762;-81
2023/06/09 01:08:59;;;;;;;9.90;5.60;;;;;;;18.16;56.91;100031.49;103469;1253;138826;-81
2023/06/09 01:11:31;;;;;;;6.90;5.70;;;;;;;18.14;56.88;100035.33;103731;1253;106624;-81
2023/06/09 01:14:08;;;;;;;7.10;4.90;;;;;;;18.11;57.23;100034.77;103500;1252;137268;-81
2023/06/09 01:16:41;;;;;;;7.50;4.80;;;;;;;18.08;57.23;100034.23;103454;1256;110320;-81
2023/06/09 01:19:24;;;;;;;8.10;5.50;;;;;;;18.05;57.46;100034.77;103551;1251;138554;-82
2023/06/09 01:21:55;;;;;;;6.50;5.30;;;;;;;18.03;57.57;100035.27;103948;1251;96347;-81
2023/06/09 01:24:32;;;;;;;6.40;5.10;;;;;;;18.01;57.82;100030.52;103486;1253;108136;-81
2023/06/09 01:27:02;;;;;;;8.30;5.30;;;;;;;17.98;57.86;100032.29;103661;1252;138334;-82
2023/06/09 01:29:31;;;;;;;8.00;5.10;;;;;;;17.95;58.20;100034.05;104137;1253;109670;-82
2023/06/09 01:31:59;;;;;;;8.30;5.00;;;;;;;17.92;58.23;100029.66;103665;1252;138424;-82
2023/06/09 01:34:27;;;;;;;6.00;5.10;;;;;;;17.91;58.52;100026.09;103573;1253;96530;-83
2023/06/09 01:36:55;;;;;;;11.60;5.60;;;;;;;17.89;58.40;100027.98;103639;1251;138210;-78
2023/06/09 01:39:22;;;;;;;7.90;5.30;;;;;;;17.87;58.50;100026.86;103481;1256;96335;-82
2023/06/09 01:41:50;;;;;;;9.60;5.30;;;;;;;17.84;58.48;100025.99;103346;1257;109829;-83
2023/06/09 01:44:17;;;;;;;6.40;5.30;;;;;;;17.84;58.56;100026.76;103308;1256;138227;-83
2023/06/09 01:46:47;;;;;;;6.80;5.10;;;;;;;17.82;58.59;100027.93;103807;1253;94802;-83
2023/06/09 01:49:22;;;;;;;6.90;4.90;;;;;;;17.80;58.65;100023.84;103518;1253;1003088;-83
2023/06/09 01:51:57;;;;;;;6.60;5.90;;;;;;;17.79;58.70;100024.91;103391;1254;96453;-83
2023/06/09 01:54:29;;;;;;;9.40;5.80;;;;;;;17.79;58.70;100026.90;103407;1253;109975;-83
2023/06/09 01:57:04;;;;;;;7.50;5.40;;;;;;;17.78;58.70;100024.85;103347;1253;138068;-82
2023/06/09 01:59:41;;;;;;;8.80;5.40;;;;;;;17.77;58.61;100025.25;103422;1253;96367;-83
2023/06/09 02:02:11;;;;;;;8.90;5.90;;;;;;;17.76;58.79;100024.73;102530;1253;1003363;-84
2023/06/09 02:04:41;;;;;;;7.00;5.80;;;;;;;17.76;58.85;100026.00;103771;1256;96425;-83
2023/06/09 02:07:09;;;;;;;10.50;5.90;;;;;;;17.74;59.06;100027.02;103277;1256;138232;-85
2023/06/09 02:09:37;;;;;;;7.00;5.20;;;;;;;17.72;59.09;100028.16;103601;1256;107599;-84
2023/06/09 02:12:06;;;;;;;9.10;5.90;;;;;;;17.72;59.04;100028.16;104071;1253;96289;-84
2023/06/09 02:14:36;;;;;;;7.70;5.80;;;;;;;17.71;59.16;100034.97;103785;1252;138194;-84
2023/06/09 02:17:09;;;;;;;6.80;5.20;;;;;;;17.69;59.19;100036.10;103850;1256;96439;-83
2023/06/09 02:19:37;;;;;;;7.60;5.90;;;;;;;17.68;59.35;100035.33;103422;1256;136964;-84
2023/06/09 02:22:05;;;;;;;10.10;6.20;;;;;;;17.67;59.39;100036.61;103368;1253;108507;-83
2023/06/09 02:24:33;;;;;;;7.50;5.40;;;;;;;17.66;59.40;100033.14;103426;1255;97215;-85
2023/06/09 02:27:01;;;;;;;7.90;5.80;;;;;;;17.66;59.59;100034.55;103266;1254;138092;-84
2023/06/09 02:29:30;;;;;;;7.70;5.70;;;;;;;17.65;59.61;100030.58;103452;1251;96512;-84
2023/06/09 02:31:59;;;;;;;10.20;5.90;;;;;;;17.64;59.69;100031.31;103330;1256;137925;-83
2023/06/09 02:34:29;;;;;;;9.30;5.70;;;;;;;17.64;59.69;100035.41;103460;1256;108760;-83
2023/06/09 02:36:58;;;;;;;6.70;5.80;;;;;;;17.65;59.92;100035.88;103360;1253;138227;-83
2023/06/09 02:39:25;;;;;;;10.60;6.40;;;;;;;17.65;59.99;100037.05;103425;1254;108129;-83
2023/06/09 02:41:52;;;;;;;7.60;6.10;;;;;;;17.64;60.04;100036.27;103407;1253;96592;-83
2023/06/09 02:44:21;;;;;;;9.70;6.80;;;;;;;17.64;60.20;100041.00;103368;1251;137962;-83
2023/06/09 02:46:49;;;;;;;10.70;6.60;;;;;;;17.64;60.30;100036.98;103407;1253;107629;-83
2023/06/09 02:49:17;;;;;;;9.70;6.30;;;;;;;17.66;60.34;100043.52;103294;1254;138656;-83
2023/06/09 02:51:44;;;;;;;9.20;7.20;;;;;;;17.68;60.31;100039.20;103448;1253;106968;-83
2023/06/09 02:54:12;;;;;;;10.20;7.20;;;;;;;17.69;60.32;100039.70;103407;1256;96437;-83
2023/06/09 02:56:44;;;;;;;10.70;6.90;;;;;;;17.68;60.45;100040.27;103591;1256;138611;-82
2023/06/09 02:59:12;;;;;;;14.60;8.00;;;;;;;17.67;60.51;100045.90;103361;1254;106768;-83
2023/06/09 03:01:43;;;;;;;9.80;7.10;;;;;;;17.67;60.51;100046.43;103289;1251;138440;-82
2023/06/09 03:04:11;;;;;;;10.50;7.70;;;;;;;17.67;60.59;100046.64;103351;1256;108138;-83
2023/06/09 03:06:43;;;;;;;10.10;6.90;;;;;;;17.65;60.69;100049.73;103432;1253;96442;-83
2023/06/09 03:09:13;;;;;;;11.40;7.20;;;;;;;17.63;60.83;100048.80;103251;1251;138117;-83
2023/06/09 03:11:41;;;;;;;10.70;7.20;;;;;;;17.66;60.92;100051.93;103390;1253;107307;-83
2023/06/09 03:14:08;;;;;;;10.10;7.10;;;;;;;17.67;60.96;100048.89;103259;1257;138305;-82
2023/06/09 03:16:37;;;;;;;9.10;6.90;;;;;;;17.69;60.92;100051.27;103292;1259;106745;-82
2023/06/09 03:19:05;;;;;;;10.20;6.50;;;;;;;17.74;61.03;100053.17;103294;1253;138844;-83
2023/06/09 03:21:35;;;;;;;9.60;6.60;;;;;;;17.82;60.92;100053.36;103408;1252;109502;-82
2023/06/09 03:24:04;;;;;;;11.90;7.30;;;;;;;17.90;60.90;100053.91;103394;1256;107759;-84
2023/06/09 03:26:32;;;;;;;13.50;7.30;;;;;;;17.96;60.91;100057.02;103224;1253;137702;-83
2023/06/09 03:29:00;;;;;;;14.10;7.70;;;;;;;18.04;60.75;100060.19;103351;1254;107705;-83
2023/06/09 03:31:27;;;;;;;11.10;6.90;;;;;;;18.10;60.57;100057.83;103191;1253;137708;-83
2023/06/09 03:33:56;;;;;;;13.00;7.60;;;;;;;18.16;60.40;100063.82;103289;1259;110051;-84
2023/06/09 03:36:24;;;;;;;10.10;7.90;;;;;;;18.19;60.30;100058.89;103323;1253;107238;-85
2023/06/09 03:38:52;;;;;;;10.90;6.80;;;;;;;18.19;60.32;100057.66;103352;1253;137560;-84
2023/06/09 03:41:21;;;;;;;13.50;6.90;;;;;;;18.22;60.15;100057.59;104121;1254;107982;-83
2023/06/09 03:43:48;;;;;;;12.60;7.80;;;;;;;18.28;60.11;100059.33;103220;1254;137900;-84
2023/06/09 03:46:15;;;;;;;13.30;8.10;;;;;;;18.32;60.09;100065.42;103328;1254;108299;-84
2023/06/09 03:48:43;;;;;;;13.00;7.70;;;;;;;18.34;59.94;100068.09;103247;1254;106702;-84
2023/06/09 03:51:13;;;;;;;12.00;7.60;;;;;;;18.34;59.95;100068.23;103239;1257;137502;-83
2023/06/09 03:53:40;;;;;;;12.00;7.30;;;;;;;18.38;59.84;100070.21;103351;1257;109305;-84
2023/06/09 03:56:08;;;;;;;12.60;7.90;;;;;;;18.45;59.96;100067.85;103198;1256;138488;-83
2023/06/09 03:58:36;;;;;;;12.40;7.10;;;;;;;18.52;59.86;100073.02;103380;1253;109865;-84
2023/06/09 04:01:04;;;;;;;10.60;6.80;;;;;;;18.61;59.74;100076.80;103133;1253;138196;-84
2023/06/09 04:03:32;;;;;;;11.70;7.90;;;;;;;18.70;59.69;100079.75;103317;1254;95248;-84
2023/06/09 04:05:59;;;;;;;11.90;7.70;;;;;;;18.77;59.56;100081.21;103385;1256;108373;-82
2023/06/09 04:08:26;;;;;;;13.90;7.90;;;;;;;18.83;59.41;100083.58;103177;1253;137807;-82
2023/06/09 04:10:54;;;;;;;11.00;7.70;;;;;;;18.91;59.34;100080.24;103456;1253;109576;-85
2023/06/09 04:13:22;;;;;;;10.60;8.00;;;;;;;18.97;59.25;100082.96;103192;1253;137729;-83
2023/06/09 04:15:49;;;;;;;15.70;7.50;;;;;;;19.00;58.90;100077.42;103267;1253;96627;-82
2023/06/09 04:18:19;;;;;;;12.20;8.00;;;;;;;19.05;58.92;100077.17;103377;1252;107712;-83
2023/06/09 04:20:47;;;;;;;10.50;7.20;;;;;;;19.08;58.74;100080.11;103267;1254;137594;-83
2023/06/09 04:23:14;;;;;;;13.10;8.00;;;;;;;19.12;58.73;100081.77;103352;1253;110355;-83
2023/06/09 04:25:43;;;;;;;10.90;8.00;;;;;;;19.15;58.69;100083.66;103260;1257;137927;-82
2023/06/09 04:28:14;;;;;;;9.70;8.10;;;;;;;19.19;58.65;100085.13;103311;1254;96439;-83
2023/06/09 04:30:41;;;;;;;12.10;8.50;;;;;;;19.23;58.53;100083.09;103338;1254;108152;-83
2023/06/09 04:33:12;;;;;;;9.90;7.80;;;;;;;19.26;58.40;100082.35;103287;1256;137526;-83
2023/06/09 04:35:41;;;;;;;11.10;7.70;;;;;;;19.29;58.33;100079.84;103348;1253;109563;-81
2023/06/09 04:38:09;;;;;;;13.00;8.10;;;;;;;19.36;58.49;100081.98;103211;1253;137849;-81
2023/06/09 04:40:39;;;;;;;11.30;7.60;;;;;;;19.43;58.25;100078.86;103389;1253;96437;-81
2023/06/09 04:43:09;;;;;;;10.30;7.40;;;;;;;19.49;58.23;100079.14;103245;1253;137624;-83
2023/06/09 04:45:36;;;;;;;13.10;7.60;;;;;;;19.57;58.34;100079.80;103418;1256;96692;-83
2023/06/09 04:48:08;;;;;;;10.50;8.10;;;;;;;19.66;58.06;100074.77;103401;1256;110118;-83
2023/06/09 04:50:36;;;;;;;11.80;8.20;;;;;;;19.75;58.06;100075.32;103231;1253;137547;-84
2023/06/09 04:53:07;;;;;;;12.70;8.20;;;;;;;19.84;57.88;100076.38;103341;1259;95211;-84
2023/06/09 04:55:41;;;;;;;11.40;8.70;;;;;;;19.95;57.75;100077.02;103133;1254;137720;-84
2023/06/09 04:58:09;;;;;;;16.30;8.70;;;;;;;20.05;57.67;100075.61;103261;1259;96439;-84
2023/06/09 05:00:37;;;;;;;14.00;7.70;;;;;;;20.14;57.33;100070.70;103414;1256;110471;-85
2023/06/09 05:03:05;;;;;;;12.00;7.30;;;;;;;20.24;57.15;100075.02;103238;1253;138621;-84
2023/06/09 05:05:33;;;;;;;8.10;7.00;;;;;;;20.34;57.14;100073.36;103531;1253;96507;-84
2023/06/09 05:08:01;;;;;;;15.00;7.50;;;;;;;20.48;57.16;100075.34;103350;1256;137520;-83
2023/06/09 05:10:28;;;;;;;12.30;7.20;;;;;;;20.63;56.88;100074.97;103486;1258;96422;-85
2023/06/09 05:12:56;;;;;;;16.50;8.40;;;;;;;20.75;56.62;100076.13;103474;1256;136669;-82
2023/06/09 05:15:26;;;;;;;14.50;7.90;;;;;;;20.90;56.40;100074.46;103560;1256;107684;-83
2023/06/09 05:17:53;;;;;;;16.50;7.40;;;;;;;21.06;56.12;100073.48;103477;1253;96530;-84
2023/06/09 05:20:21;;;;;;;13.60;6.80;;;;;;;21.31;55.78;100074.07;103232;1255;137446;-84
2023/06/09 05:22:49;;;;;;;14.60;6.70;;;;;;;21.55;55.47;100075.64;103399;1257;96459;-83
2023/06/09 05:25:18;;;;;;;13.90;7.80;;;;;;;21.81;54.98;100071.41;103396;1254;136771;-84
2023/06/09 05:27:45;;;;;;;11.90;6.90;;;;;;;22.10;54.69;100071.55;104065;1257;109067;-84
2023/06/09 05:30:14;;;;;;;9.40;6.50;;;;;;;22.39;54.12;100069.13;103512;1256;96909;-84
2023/06/09 05:32:42;;;;;;;9.20;6.20;;;;;;;22.64;53.44;100071.92;103364;1253;137057;-84
2023/06/09 05:35:09;;;;;;;9.60;5.70;;;;;;;22.87;52.86;100072.77;103452;1254;96341;-83
2023/06/09 05:37:40;;;;;;;8.60;5.90;;;;;;;23.13;52.40;100068.82;103549;1254;137304;-84
2023/06/09 05:40:11;;;;;;;10.90;5.70;;;;;;;23.34;51.78;100069.95;103830;1256;105791;-85
2023/06/09 05:42:38;;;;;;;9.70;5.70;;;;;;;23.53;51.27;100067.42;104440;1253;94383;-85
2023/06/09 05:45:07;;;;;;;8.70;5.90;;;;;;;23.75;50.86;100064.77;103622;1256;136376;-86
2023/06/09 05:47:35;;;;;;;9.30;5.70;;;;;;;24.02;50.48;100068.11;103908;1256;97162;-85
2023/06/09 05:50:02;;;;;;;9.90;5.80;;;;;;;24.33;50.09;100065.65;103631;1259;140865;-86
2023/06/09 05:52:29;;;;;;;12.70;6.00;;;;;;;24.83;49.71;100065.04;103371;1257;106242;-86
2023/06/09 05:54:57;;;;;;;8.40;5.10;;;;;;;25.52;48.52;100055.77;103301;1259;137956;-85
2023/06/09 05:57:25;;;;;;;9.80;5.20;;;;;;;26.80;48.07;100056.94;103392;1266;108200;-87
2023/06/09 05:59:53;;;;;;;7.50;5.00;;;;;;;28.74;45.21;100055.39;103721;1256;96429;-86
2023/06/09 06:02:20;;;;;;;10.70;5.00;;;;;;;30.52;42.27;100051.94;103273;1254;137275;-84
2023/06/09 06:04:47;;;;;;;9.60;4.90;;;;;;;32.08;39.92;100049.90;103263;1256;108150;-85
2023/06/09 06:07:16;;;;;;;9.10;4.40;;;;;;;33.47;37.94;100045.36;103296;1254;137750;-84
2023/06/09 06:09:43;;;;;;;8.10;4.50;;;;;;;34.89;35.73;100045.86;103333;1256;100411;-85
2023/06/09 06:12:11;;;;;;;11.60;4.20;;;;;;;36.13;33.97;100042.93;103344;1254;96459;-83
2023/06/09 06:14:38;;;;;;;11.00;4.00;;;;;;;37.30;32.14;100039.40;103301;1253;137379;-84
2023/06/09 06:17:06;;;;;;;6.60;4.30;;;;;;;38.47;30.39;100036.26;103342;1254;106418;-84
2023/06/09 06:19:33;;;;;;;10.60;3.90;;;;;;;39.25;28.74;100037.90;103312;1256;137769;-82
2023/06/09 06:22:00;;;;;;;5.80;4.00;;;;;;;39.87;27.74;100035.41;103353;1256;100467;-85
2023/06/09 06:24:27;;;;;;;6.60;4.10;;;;;;;40.51;26.49;100034.35;103324;1257;96455;-83
2023/06/09 06:26:55;;;;;;;6.60;3.60;;;;;;;41.11;25.63;100034.65;103268;1256;137424;-84
2023/06/09 06:29:22;;;;;;;12.50;3.50;;;;;;;41.65;24.57;100037.23;103351;1255;98460;-83
2023/06/09 06:31:49;;;;;;;13.20;3.90;;;;;;;42.02;24.06;100034.58;103269;1254;137504;-83
2023/06/09 06:34:16;;;;;;;8.50;3.70;;;;;;;42.54;23.45;100031.44;103386;1256;100400;-84
2023/06/09 06:36:44;;;;;;;6.00;3.60;;;;;;;43.02;22.71;100034.85;103406;1266;96469;-84
2023/06/09 06:39:12;;;;;;;10.10;3.80;;;;;;;43.40;22.07;100033.91;103289;1265;137557;-85
2023/06/09 06:41:39;;;;;;;8.00;3.30;;;;;;;43.80;21.40;100035.98;103323;1256;98759;-84
2023/06/09 06:44:07;;;;;;;7.60;3.60;;;;;;;44.17;20.98;100031.55;103321;1254;137230;-85
2023/06/09 06:46:34;;;;;;;8.10;2.90;;;;;;;44.40;20.41;100030.55;103296;1257;100131;-88
2023/06/09 06:49:02;;;;;;;6.90;3.10;;;;;;;44.64;20.00;100029.41;103295;1257;137702;-83
2023/06/09 06:51:29;;;;;;;4.80;3.30;;;;;;;44.81;19.39;100031.41;103402;1256;101239;-83
2023/06/09 06:53:56;;;;;;;6.60;2.90;;;;;;;44.87;19.41;100033.05;103353;1257;100698;-85
2023/06/09 06:56:24;;;;;;;5.30;2.70;;;;;;;45.20;18.52;100032.95;103230;1254;137581;-87
2023/06/09 06:58:51;;;;;;;6.50;3.10;;;;;;;45.33;18.31;100029.09;103296;1254;99290;-82
2023/06/09 07:01:20;;;;;;;8.40;3.10;;;;;;;45.44;18.48;100031.23;103241;1257;139108;-86
2023/06/09 07:03:49;;;;;;;6.20;2.90;;;;;;;45.67;18.29;100036.61;103440;1257;110271;-85
2023/06/09 07:06:17;;;;;;;6.90;2.90;;;;;;;45.76;17.82;100035.98;103348;1257;99706;-83
2023/06/09 07:08:44;;;;;;;6.60;2.80;;;;;;;45.85;17.47;100036.02;103203;1257;137202;-87
2023/06/09 07:11:11;;;;;;;6.00;3.00;;;;;;;46.01;17.06;100039.55;103366;1257;100408;-85
2023/06/09 07:13:38;;;;;;;7.70;3.10;;;;;;;46.06;17.07;100039.24;103238;1257;137324;-83
2023/06/09 07:16:06;;;;;;;6.70;2.80;;;;;;;46.02;16.94;100041.26;103364;1258;111184;-87
2023/06/09 07:18:34;;;;;;;6.30;3.00;;;;;;;45.99;16.98;100039.84;103323;1254;100055;-86
2023/06/09 07:21:01;;;;;;;2.80;2.30;;;;;;;45.86;16.20;100038.55;103289;1257;138110;-85
2023/06/09 07:23:31;;;;;;;5.30;2.80;;;;;;;45.63;16.48;100040.09;103348;1253;100144;-86
2023/06/09 07:25:59;;;;;;;5.60;2.70;;;;;;;45.43;16.19;100039.10;103269;1255;137513;-86
2023/06/09 07:28:26;;;;;;;6.90;2.60;;;;;;;45.14;15.85;100038.95;103350;1255;100780;-85
2023/06/09 07:30:53;;;;;;;4.90;2.50;;;;;;;44.72;16.05;100033.36;103432;1256;98996;-85
2023/06/09 07:33:20;;;;;;;3.20;2.50;;;;;;;44.53;16.33;100027.43;103339;1254;96472;-85
2023/06/09 07:35:49;;;;;;;5.40;2.50;;;;;;;44.20;16.15;100028.54;103441;1258;98864;-88
2023/06/09 07:38:17;;;;;;;3.60;2.50;;;;;;;43.69;16.30;100033.04;103306;1258;137342;-86
2023/06/09 07:40:45;;;;;;;3.30;2.40;;;;;;;43.20;16.60;100033.00;103510;1251;101419;-87
2023/06/09 07:43:12;;;;;;;6.10;2.80;;;;;;;42.60;16.35;100031.42;103285;1256;137730;-89
2023/06/09 07:45:39;;;;;;;4.70;2.60;;;;;;;41.54;16.87;100033.45;103557;1251;96439;-87
2023/06/09 07:48:06;;;;;;;5.30;3.10;;;;;;;40.72;17.60;100030.23;103460;1255;99351;-88
2023/06/09 07:50:34;;;;;;;3.70;2.70;;;;;;;40.29;18.38;100026.14;103342;1254;137356;-88
2023/06/09 07:53:22;;;;;;;6.00;2.60;;;;;;;40.12;18.74;100028.80;104855;1253;101404;-90
2023/06/09 07:55:49;;;;;;;7.50;2.50;;;;;;;39.92;18.80;100024.45;103543;1251;137492;-88
2023/06/09 07:58:17;;;;;;;4.90;2.80;;;;;;;39.49;19.15;100025.73;103521;1251;96370;-88
2023/06/09 08:00:44;;;;;;;3.60;2.80;;;;;;;39.27;19.23;100025.85;103527;1251;100451;-88
2023/06/09 08:03:11;;;;;;;5.50;3.00;;;;;;;39.08;19.55;100023.63;103315;1254;137251;-87
2023/06/09 08:05:39;;;;;;;4.70;3.10;;;;;;;39.00;19.73;100020.35;103404;1251;102522;-88
2023/06/09 08:08:07;;;;;;;6.90;3.20;;;;;;;38.99;20.06;100022.09;103400;1256;137434;-90
2023/06/09 08:10:34;;;;;;;5.60;2.90;;;;;;;39.28;20.32;100018.31;103523;1256;96429;-90
2023/06/09 08:13:01;;;;;;;5.50;3.40;;;;;;;39.67;20.41;100020.67;103395;1257;137432;-88
2023/06/09 08:15:29;;;;;;;5.90;3.40;;;;;;;40.14;20.14;100021.29;103568;1251;96446;-87
2023/06/09 08:17:56;;;;;;;7.00;3.00;;;;;;;40.48;19.97;100017.27;103520;1251;102518;-88
2023/06/09 08:20:23;;;;;;;9.70;3.80;;;;;;;40.84;19.63;100016.65;103384;1251;137438;-87
2023/06/09 08:22:50;;;;;;;9.80;3.10;;;;;;;41.26;19.58;100017.94;103460;1257;96418;-87
2023/06/09 08:25:21;;;;;;;9.40;3.30;;;;;;;41.63;19.39;100021.71;103395;1253;137491;-89
2023/06/09 08:27:48;;;;;;;5.00;3.20;;;;;;;41.92;19.10;100017.88;103468;1256;96539;-87
2023/06/09 08:30:16;;;;;;;7.10;3.30;;;;;;;42.12;18.91;100012.26;103559;1254;102344;-85
2023/06/09 08:32:44;;;;;;;6.20;2.70;;;;;;;42.36;18.40;100014.58;103385;1251;137360;-87
2023/06/09 08:35:13;;;;;;;7.60;2.90;;;;;;;42.35;17.97;100015.17;103589;1256;96385;-86
2023/06/09 08:37:41;;;;;;;4.40;2.90;;;;;;;42.19;17.71;100018.50;103405;1254;137223;-88
2023/06/09 08:40:10;;;;;;;6.50;2.90;;;;;;;41.75;17.75;100017.44;103435;1256;96430;-88
2023/06/09 08:42:39;;;;;;;8.00;3.00;;;;;;;41.38;18.33;100015.36;103617;1251;102468;-88
2023/06/09 08:45:08;;;;;;;4.50;3.10;;;;;;;41.24;18.49;100017.33;103423;1251;137842;-88
2023/06/09 08:47:39;;;;;;;4.90;3.20;;;;;;;41.18;18.62;100013.02;103490;1256;96470;-88
2023/06/09 08:50:10;;;;;;;4.20;3.10;;;;;;;40.75;18.74;100017.43;103359;1251;137943;-89
2023/06/09 08:52:38;;;;;;;6.10;3.40;;;;;;;39.99;18.88;100018.56;103437;1251;96613;-89
2023/06/09 08:55:06;;;;;;;9.30;3.30;;;;;;;39.08;19.56;100021.45;103375;1254;138121;-88
2023/06/09 08:57:35;;;;;;;7.50;3.50;;;;;;;38.47;20.35;100024.20;103398;1257;99957;-85
2023/06/09 09:00:11;;;;;;;5.80;3.50;;;;;;;37.66;20.53;100022.84;103570;1254;96364;-88
2023/06/09 09:02:39;;;;;;;7.90;3.50;;;;;;;36.90;21.39;100027.83;104655;1251;137955;-89
2023/06/09 09:05:09;;;;;;;6.80;3.30;;;;;;;36.50;22.10;100023.30;103724;1256;96429;-89
2023/06/09 09:07:37;;;;;;;6.40;3.50;;;;;;;36.58;22.28;100025.06;103341;1253;137343;-87
2023/06/09 09:10:04;;;;;;;8.90;3.70;;;;;;;36.62;21.95;100021.64;103410;1255;99059;-89
2023/06/09 09:12:47;;;;;;;6.10;3.10;;;;;;;36.32;22.09;100019.15;103426;1251;96543;-87
2023/06/09 09:15:15;;;;;;;7.60;3.30;;;;;;;35.81;22.07;100021.34;104754;1252;100655;-88
2023/06/09 09:17:44;;;;;;;5.20;3.20;;;;;;;35.27;22.96;100024.11;103406;1257;96450;-88
2023/06/09 09:20:14;;;;;;;8.30;3.20;;;;;;;35.02;23.54;100022.54;103359;1256;137401;-86
2023/06/09 09:22:51;;;;;;;4.70;3.40;;;;;;;34.76;23.42;100022.05;103535;1256;100248;-88
2023/06/09 09:25:26;;;;;;;6.80;3.20;;;;;;;34.35;23.82;100019.25;103399;1257;138023;-89
2023/06/09 09:28:08;;;;;;;8.50;3.50;;;;;;;33.90;24.27;100018.95;103456;1254;100253;-89
2023/06/09 09:30:58;;;;;;;7.50;3.40;;;;;;;33.54;24.76;100015.30;103439;1256;96473;-89
2023/06/09 09:33:28;;;;;;;7.00;3.10;;;;;;;33.39;24.93;100014.58;103375;1254;102708;-89
2023/06/09 09:35:57;;;;;;;3.80;3.10;;;;;;;32.96;24.36;100020.96;104298;1254;106830;-89
2023/06/09 09:38:25;;;;;;;6.40;3.20;;;;;;;32.59;24.61;100017.89;103351;1254;137706;-91
2023/06/09 09:40:54;;;;;;;7.50;3.50;;;;;;;32.37;25.33;100013.67;103456;1254;108269;-92
2023/06/09 09:43:24;;;;;;;8.90;3.50;;;;;;;32.36;25.97;100009.81;103432;1254;137581;-90
2023/06/09 09:45:53;;;;;;;8.40;3.60;;;;;;;32.56;26.44;100008.20;103803;1254;102350;-89
2023/06/09 09:48:23;;;;;;;5.30;3.30;;;;;;;32.97;26.15;100006.46;103338;1254;98710;-89
2023/06/09 09:50:52;;;;;;;4.80;3.20;;;;;;;33.33;25.82;100001.81;103376;1256;137696;-89
2023/06/09 09:53:23;;;;;;;6.70;3.30;;;;;;;33.76;24.99;99997.77;103386;1254;99214;-89
2023/06/09 09:55:54;;;;;;;3.60;2.50;;;;;;;34.18;24.23;99998.17;103319;1254;137734;-89
2023/06/09 09:58:29;;;;;;;5.10;2.90;;;;;;;34.28;23.33;99996.88;103348;1254;100419;-90
2023/06/09 10:00:59;;;;;;;3.30;2.50;;;;;;;34.49;23.56;99993.66;103261;1257;100210;-90
2023/06/09 10:03:27;;;;;;;4.80;2.90;;;;;;;34.60;22.47;99994.14;103305;1257;281811;-91
2023/06/09 10:05:56;;;;;;;7.10;3.20;;;;;;;34.27;22.66;99989.17;103380;1253;99848;-89
2023/06/09 10:08:27;;;;;;;5.20;2.40;;;;;;;34.07;22.64;99982.34;103386;1256;137048;-88
2023/06/09 10:10:59;;;;;;;6.10;2.70;;;;;;;33.88;22.72;99988.91;103491;1253;101422;-88
2023/06/09 10:13:27;;;;;;;7.80;2.70;;;;;;;33.59;22.71;99982.19;103353;1256;137550;-87
2023/06/09 10:15:55;;;;;;;3.50;2.50;;;;;;;33.48;22.78;99981.55;103563;1257;96501;-88
2023/06/09 10:18:24;;;;;;;7.20;2.40;;;;;;;33.27;22.51;99983.45;103514;1251;100493;-88
2023/06/09 10:20:54;;;;;;;6.20;2.70;;;;;;;33.24;23.24;99976.06;103362;1253;138985;-88
2023/06/09 10:23:23;;;;;;;5.20;2.60;;;;;;;33.47;23.41;99974.23;103471;1254;101402;-86
2023/06/09 10:25:51;;;;;;;4.40;2.50;;;;;;;33.70;22.95;99972.08;103457;1251;137293;-88
2023/06/09 10:28:21;;;;;;;3.00;2.30;;;;;;;33.52;23.08;99968.73;103701;1253;96389;-88
2023/06/09 10:30:50;;;;;;;8.60;2.80;;;;;;;33.15;23.83;99966.77;103460;1254;99598;-87
2023/06/09 10:33:21;;;;;;;5.10;2.90;;;;;;;32.99;24.23;99963.38;103319;1254;137061;-86
2023/06/09 10:35:51;;;;;;;5.70;2.80;;;;;;;33.06;24.53;99959.45;103456;1256;110612;-86
2023/06/09 10:38:28;;;;;;;4.60;3.10;;;;;;;33.25;24.60;99955.45;103309;1253;138073;-85
2023/06/09 10:41:06;;;;;;;7.70;3.30;;;;;;;33.18;24.03;99951.45;104328;1256;96457;-89
2023/06/09 10:43:49;;;;;;;5.60;4.10;;;;;;;32.88;24.04;99945.98;103350;1253;136345;-89
2023/06/09 10:46:16;;;;;;;5.70;2.70;;;;;;;32.51;24.28;99947.23;103408;1257;96533;-90
2023/06/09 10:48:46;;;;;;;6.50;2.70;;;;;;;31.97;24.68;99953.05;103525;1253;109860;-89
2023/06/09 10:51:42;;;;;;;7.20;2.70;;;;;;;31.67;25.28;99958.38;103710;1254;138419;-88
2023/06/09 10:54:23;;;;;;;5.50;2.70;;;;;;;31.63;25.47;99951.14;103430;1257;96424;-87
2023/06/09 10:56:53;;;;;;;6.30;2.90;;;;;;;31.60;25.40;99940.20;103368;1256;137294;-89
2023/06/09 11:00:15;;;;;;;5.60;2.60;;;;;;;31.57;25.58;99936.42;103409;1254;96328;-89
2023/06/09 11:02:45;;;;;;;5.00;2.90;;;;;;;31.61;25.63;99931.45;103269;1253;135955;-88
2023/06/09 11:05:13;;;;;;;7.00;2.70;;;;;;;31.44;25.96;99926.85;103408;1253;107647;-90
2023/06/09 11:07:50;;;;;;;6.90;2.80;;;;;;;31.13;26.20;99924.75;103354;1254;137307;-88
2023/06/09 11:10:41;;;;;;;5.20;2.60;;;;;;;31.05;26.35;99924.05;103428;1256;107522;-87
2023/06/09 11:13:39;;;;;;;4.10;2.30;;;;;;;31.00;26.36;99928.43;103322;1254;136343;-88
2023/06/09 11:16:08;;;;;;;8.40;2.60;;;;;;;30.73;26.15;99924.67;103327;1253;111658;-88
2023/06/09 11:18:35;;;;;;;6.30;2.60;;;;;;;30.61;26.64;99924.20;103383;1253;106822;-87
2023/06/09 11:21:23;;;;;;;5.90;2.70;;;;;;;30.61;26.59;99919.56;103329;1256;137262;-88